sensor_id;sensor_type;location;lat;lon;timestamp;P1;durP1;ratioP1;P2;durP2;ratioP2
37843;SDS011;63793;57.632;18.292;2022-12-24T00:01:04;0.68;;;0.30;;
37843;SDS011;63793;57.632;18.292;2022-12-24T00:03:32;1.25;;;0.95;;
37843;SDS011;63793;57.632;18.292;2022-12-24T00:06:04;2.75;;;0.77;;
37843;SDS011;63793;57.632;18.292;2022-12-24T00:08:41;0.52;;;0.32;;
37843;SDS011;63793;57.632;18.292;2022-12-24T00:11:08;2.13;;;0.40;;
37843;SDS011;63793;57.632;18.292;2022-12-24T00:13:35;0.65;;;0.30;;
37843;SDS011;63793;57.632;18.292;2022-12-24T00:16:01;3.75;;;0.50;;
37843;SDS011;63793;57.632;18.292;2022-12-24T00:18:28;3.92;;;1.60;;
37843;SDS011;63793;57.632;18.292;2022-12-24T00:20:55;3.47;;;1.08;;
37843;SDS011;63793;57.632;18.292;2022-12-24T00:23:22;1.70;;;0.70;;
37843;SDS011;63793;57.632;18.292;2022-12-24T00:25:49;1.63;;;0.90;;
37843;SDS011;63793;57.632;18.292;2022-12-24T00:28:16;0.73;;;0.60;;
37843;SDS011;63793;57.632;18.292;2022-12-24T00:30:43;0.60;;;0.45;;
37843;SDS011;63793;57.632;18.292;2022-12-24T00:33:10;2.55;;;0.50;;
37843;SDS011;63793;57.632;18.292;2022-12-24T00:35:38;4.45;;;0.63;;
37843;SDS011;63793;57.632;18.292;2022-12-24T00:38:06;4.43;;;0.80;;
37843;SDS011;63793;57.632;18.292;2022-12-24T00:40:33;3.03;;;0.80;;
37843;SDS011;63793;57.632;18.292;2022-12-24T00:43:01;5.95;;;0.88;;
37843;SDS011;63793;57.632;18.292;2022-12-24T00:45:28;1.35;;;0.50;;
37843;SDS011;63793;57.632;18.292;2022-12-24T00:47:55;1.58;;;0.80;;
37843;SDS011;63793;57.632;18.292;2022-12-24T00:50:22;2.70;;;0.80;;
37843;SDS011;63793;57.632;18.292;2022-12-24T00:52:48;2.33;;;0.40;;
37843;SDS011;63793;57.632;18.292;2022-12-24T00:55:16;2.92;;;1.25;;
37843;SDS011;63793;57.632;18.292;2022-12-24T00:57:43;6.00;;;0.77;;
37843;SDS011;63793;57.632;18.292;2022-12-24T01:00:10;1.50;;;1.17;;
37843;SDS011;63793;57.632;18.292;2022-12-24T01:02:37;1.90;;;1.02;;
37843;SDS011;63793;57.632;18.292;2022-12-24T01:05:04;2.60;;;0.77;;
37843;SDS011;63793;57.632;18.292;2022-12-24T01:07:38;3.38;;;0.70;;
37843;SDS011;63793;57.632;18.292;2022-12-24T01:10:07;2.55;;;0.93;;
37843;SDS011;63793;57.632;18.292;2022-12-24T01:12:35;1.33;;;0.63;;
37843;SDS011;63793;57.632;18.292;2022-12-24T01:15:02;0.88;;;0.80;;
37843;SDS011;63793;57.632;18.292;2022-12-24T01:17:30;3.50;;;0.82;;
37843;SDS011;63793;57.632;18.292;2022-12-24T01:19:58;1.58;;;0.60;;
37843;SDS011;63793;57.632;18.292;2022-12-24T01:22:25;2.65;;;0.88;;
37843;SDS011;63793;57.632;18.292;2022-12-24T01:24:52;1.27;;;0.60;;
37843;SDS011;63793;57.632;18.292;2022-12-24T01:27:19;3.83;;;0.80;;
37843;SDS011;63793;57.632;18.292;2022-12-24T01:29:46;4.25;;;0.90;;
37843;SDS011;63793;57.632;18.292;2022-12-24T01:32:13;3.78;;;1.00;;
37843;SDS011;63793;57.632;18.292;2022-12-24T01:34:40;1.42;;;0.82;;
37843;SDS011;63793;57.632;18.292;2022-12-24T01:37:07;0.73;;;0.50;;
37843;SDS011;63793;57.632;18.292;2022-12-24T01:39:34;4.88;;;0.90;;
37843;SDS011;63793;57.632;18.292;2022-12-24T01:42:01;1.73;;;1.05;;
37843;SDS011;63793;57.632;18.292;2022-12-24T01:44:54;4.13;;;0.82;;
37843;SDS011;63793;57.632;18.292;2022-12-24T01:47:26;1.17;;;0.50;;
37843;SDS011;63793;57.632;18.292;2022-12-24T01:49:56;1.30;;;0.98;;
37843;SDS011;63793;57.632;18.292;2022-12-24T01:55:07;1.15;;;0.63;;
37843;SDS011;63793;57.632;18.292;2022-12-24T01:57:40;4.82;;;1.25;;
37843;SDS011;63793;57.632;18.292;2022-12-24T02:00:13;1.15;;;0.60;;
37843;SDS011;63793;57.632;18.292;2022-12-24T02:02:42;2.15;;;0.73;;
37843;SDS011;63793;57.632;18.292;2022-12-24T02:05:20;3.67;;;0.63;;
37843;SDS011;63793;57.632;18.292;2022-12-24T02:08:08;3.15;;;0.75;;
37843;SDS011;63793;57.632;18.292;2022-12-24T02:10:36;1.60;;;0.80;;
37843;SDS011;63793;57.632;18.292;2022-12-24T02:13:03;1.17;;;0.60;;
37843;SDS011;63793;57.632;18.292;2022-12-24T02:18:25;1.27;;;0.70;;
37843;SDS011;63793;57.632;18.292;2022-12-24T02:29:45;1.38;;;0.50;;
37843;SDS011;63793;57.632;18.292;2022-12-24T02:32:20;4.75;;;0.75;;
37843;SDS011;63793;57.632;18.292;2022-12-24T02:34:51;0.85;;;0.68;;
37843;SDS011;63793;57.632;18.292;2022-12-24T02:37:27;5.50;;;1.02;;
37843;SDS011;63793;57.632;18.292;2022-12-24T02:40:05;1.60;;;0.98;;
37843;SDS011;63793;57.632;18.292;2022-12-24T02:42:43;5.32;;;0.88;;
37843;SDS011;63793;57.632;18.292;2022-12-24T02:45:16;1.65;;;0.68;;
37843;SDS011;63793;57.632;18.292;2022-12-24T02:47:47;2.78;;;0.80;;
37843;SDS011;63793;57.632;18.292;2022-12-24T02:50:15;1.98;;;1.75;;
37843;SDS011;63793;57.632;18.292;2022-12-24T02:52:43;2.00;;;0.43;;
37843;SDS011;63793;57.632;18.292;2022-12-24T03:00:22;0.52;;;0.40;;
37843;SDS011;63793;57.632;18.292;2022-12-24T03:05:38;0.90;;;0.70;;
37843;SDS011;63793;57.632;18.292;2022-12-24T03:08:35;1.77;;;0.65;;
37843;SDS011;63793;57.632;18.292;2022-12-24T03:11:22;1.92;;;0.70;;
37843;SDS011;63793;57.632;18.292;2022-12-24T03:13:49;2.03;;;0.50;;
37843;SDS011;63793;57.632;18.292;2022-12-24T03:16:21;1.10;;;0.68;;
37843;SDS011;63793;57.632;18.292;2022-12-24T03:18:51;0.40;;;0.40;;
37843;SDS011;63793;57.632;18.292;2022-12-24T03:21:28;4.82;;;0.63;;
37843;SDS011;63793;57.632;18.292;2022-12-24T03:23:58;5.68;;;1.23;;
37843;SDS011;63793;57.632;18.292;2022-12-24T03:26:25;5.72;;;1.38;;
37843;SDS011;63793;57.632;18.292;2022-12-24T03:31:22;2.72;;;1.20;;
37843;SDS011;63793;57.632;18.292;2022-12-24T03:33:49;3.90;;;1.20;;
37843;SDS011;63793;57.632;18.292;2022-12-24T03:36:17;5.93;;;1.23;;
37843;SDS011;63793;57.632;18.292;2022-12-24T03:38:44;4.82;;;0.95;;
37843;SDS011;63793;57.632;18.292;2022-12-24T03:41:11;1.35;;;1.13;;
37843;SDS011;63793;57.632;18.292;2022-12-24T03:43:37;5.00;;;1.30;;
37843;SDS011;63793;57.632;18.292;2022-12-24T03:46:06;2.13;;;1.55;;
37843;SDS011;63793;57.632;18.292;2022-12-24T03:48:34;4.00;;;1.10;;
37843;SDS011;63793;57.632;18.292;2022-12-24T03:51:02;3.95;;;1.52;;
37843;SDS011;63793;57.632;18.292;2022-12-24T03:53:29;3.05;;;1.48;;
37843;SDS011;63793;57.632;18.292;2022-12-24T03:55:56;2.35;;;1.60;;
37843;SDS011;63793;57.632;18.292;2022-12-24T03:58:23;2.22;;;1.83;;
37843;SDS011;63793;57.632;18.292;2022-12-24T04:00:51;5.30;;;1.80;;
37843;SDS011;63793;57.632;18.292;2022-12-24T04:03:19;4.63;;;2.40;;
37843;SDS011;63793;57.632;18.292;2022-12-24T04:05:46;4.15;;;2.05;;
37843;SDS011;63793;57.632;18.292;2022-12-24T04:08:13;2.25;;;1.35;;
37843;SDS011;63793;57.632;18.292;2022-12-24T04:10:40;3.33;;;1.23;;
37843;SDS011;63793;57.632;18.292;2022-12-24T04:13:07;5.03;;;1.13;;
37843;SDS011;63793;57.632;18.292;2022-12-24T04:15:34;3.38;;;1.08;;
37843;SDS011;63793;57.632;18.292;2022-12-24T04:18:01;2.58;;;1.10;;
37843;SDS011;63793;57.632;18.292;2022-12-24T04:20:28;2.17;;;1.33;;
37843;SDS011;63793;57.632;18.292;2022-12-24T04:22:55;3.35;;;1.40;;
37843;SDS011;63793;57.632;18.292;2022-12-24T04:25:22;1.48;;;1.27;;
37843;SDS011;63793;57.632;18.292;2022-12-24T04:27:49;2.00;;;0.98;;
37843;SDS011;63793;57.632;18.292;2022-12-24T04:30:15;4.30;;;1.33;;
37843;SDS011;63793;57.632;18.292;2022-12-24T04:32:42;1.40;;;0.90;;
37843;SDS011;63793;57.632;18.292;2022-12-24T04:35:09;1.50;;;1.00;;
37843;SDS011;63793;57.632;18.292;2022-12-24T04:37:36;2.67;;;1.83;;
37843;SDS011;63793;57.632;18.292;2022-12-24T04:40:03;7.50;;;1.20;;
37843;SDS011;63793;57.632;18.292;2022-12-24T04:42:30;5.80;;;1.13;;
37843;SDS011;63793;57.632;18.292;2022-12-24T04:44:57;2.22;;;0.57;;
37843;SDS011;63793;57.632;18.292;2022-12-24T04:47:24;2.40;;;1.02;;
37843;SDS011;63793;57.632;18.292;2022-12-24T04:49:51;0.98;;;0.80;;
37843;SDS011;63793;57.632;18.292;2022-12-24T04:52:18;5.32;;;1.15;;
37843;SDS011;63793;57.632;18.292;2022-12-24T04:54:45;3.40;;;1.52;;
37843;SDS011;63793;57.632;18.292;2022-12-24T04:57:12;5.03;;;1.52;;
37843;SDS011;63793;57.632;18.292;2022-12-24T04:59:39;2.38;;;1.45;;
37843;SDS011;63793;57.632;18.292;2022-12-24T05:02:06;5.25;;;1.15;;
37843;SDS011;63793;57.632;18.292;2022-12-24T05:04:33;1.45;;;0.93;;
37843;SDS011;63793;57.632;18.292;2022-12-24T05:07:00;0.98;;;0.88;;
37843;SDS011;63793;57.632;18.292;2022-12-24T05:09:27;2.97;;;1.98;;
37843;SDS011;63793;57.632;18.292;2022-12-24T05:11:54;5.18;;;1.52;;
37843;SDS011;63793;57.632;18.292;2022-12-24T05:14:21;4.03;;;1.10;;
37843;SDS011;63793;57.632;18.292;2022-12-24T05:16:48;6.75;;;2.15;;
37843;SDS011;63793;57.632;18.292;2022-12-24T05:19:15;3.67;;;1.17;;
37843;SDS011;63793;57.632;18.292;2022-12-24T05:21:41;5.10;;;1.40;;
37843;SDS011;63793;57.632;18.292;2022-12-24T05:24:11;2.25;;;1.98;;
37843;SDS011;63793;57.632;18.292;2022-12-24T05:26:57;5.97;;;1.63;;
37843;SDS011;63793;57.632;18.292;2022-12-24T05:29:24;2.22;;;1.30;;
37843;SDS011;63793;57.632;18.292;2022-12-24T05:31:51;3.22;;;1.10;;
37843;SDS011;63793;57.632;18.292;2022-12-24T05:34:18;4.95;;;1.20;;
37843;SDS011;63793;57.632;18.292;2022-12-24T05:36:45;1.42;;;0.93;;
37843;SDS011;63793;57.632;18.292;2022-12-24T05:39:15;2.22;;;1.67;;
37843;SDS011;63793;57.632;18.292;2022-12-24T05:41:43;2.38;;;1.20;;
37843;SDS011;63793;57.632;18.292;2022-12-24T05:44:11;2.72;;;1.13;;
37843;SDS011;63793;57.632;18.292;2022-12-24T05:46:38;8.77;;;2.20;;
37843;SDS011;63793;57.632;18.292;2022-12-24T05:49:05;5.25;;;1.40;;
37843;SDS011;63793;57.632;18.292;2022-12-24T05:51:32;5.05;;;1.75;;
37843;SDS011;63793;57.632;18.292;2022-12-24T05:53:59;4.47;;;1.90;;
37843;SDS011;63793;57.632;18.292;2022-12-24T05:56:26;6.70;;;1.92;;
37843;SDS011;63793;57.632;18.292;2022-12-24T05:58:53;8.88;;;2.08;;
37843;SDS011;63793;57.632;18.292;2022-12-24T06:01:21;6.28;;;2.83;;
37843;SDS011;63793;57.632;18.292;2022-12-24T06:03:48;7.70;;;4.03;;
37843;SDS011;63793;57.632;18.292;2022-12-24T06:06:17;6.70;;;2.38;;
37843;SDS011;63793;57.632;18.292;2022-12-24T06:11:15;17.52;;;4.68;;
37843;SDS011;63793;57.632;18.292;2022-12-24T06:13:43;3.88;;;2.95;;
37843;SDS011;63793;57.632;18.292;2022-12-24T06:16:13;4.88;;;3.15;;
37843;SDS011;63793;57.632;18.292;2022-12-24T06:18:42;5.90;;;4.72;;
37843;SDS011;63793;57.632;18.292;2022-12-24T06:21:09;5.10;;;4.25;;
37843;SDS011;63793;57.632;18.292;2022-12-24T06:23:38;13.18;;;6.75;;
37843;SDS011;63793;57.632;18.292;2022-12-24T06:26:07;7.32;;;4.10;;
37843;SDS011;63793;57.632;18.292;2022-12-24T06:28:36;9.18;;;5.28;;
37843;SDS011;63793;57.632;18.292;2022-12-24T06:31:04;13.80;;;5.57;;
37843;SDS011;63793;57.632;18.292;2022-12-24T06:33:32;5.32;;;2.75;;
37843;SDS011;63793;57.632;18.292;2022-12-24T06:35:59;6.15;;;2.70;;
37843;SDS011;63793;57.632;18.292;2022-12-24T06:38:28;4.15;;;2.63;;
37843;SDS011;63793;57.632;18.292;2022-12-24T06:40:56;11.70;;;3.53;;
37843;SDS011;63793;57.632;18.292;2022-12-24T06:43:23;8.55;;;3.25;;
37843;SDS011;63793;57.632;18.292;2022-12-24T06:45:50;8.75;;;2.03;;
37843;SDS011;63793;57.632;18.292;2022-12-24T06:48:17;4.53;;;1.77;;
37843;SDS011;63793;57.632;18.292;2022-12-24T06:50:44;5.47;;;3.10;;
37843;SDS011;63793;57.632;18.292;2022-12-24T06:53:12;15.07;;;2.88;;
37843;SDS011;63793;57.632;18.292;2022-12-24T06:55:39;2.60;;;1.95;;
37843;SDS011;63793;57.632;18.292;2022-12-24T06:58:05;4.75;;;2.85;;
37843;SDS011;63793;57.632;18.292;2022-12-24T07:00:32;11.15;;;2.47;;
37843;SDS011;63793;57.632;18.292;2022-12-24T07:03:00;16.58;;;3.03;;
37843;SDS011;63793;57.632;18.292;2022-12-24T07:05:27;17.35;;;3.20;;
37843;SDS011;63793;57.632;18.292;2022-12-24T07:07:54;8.27;;;3.60;;
37843;SDS011;63793;57.632;18.292;2022-12-24T07:10:21;10.57;;;3.80;;
37843;SDS011;63793;57.632;18.292;2022-12-24T07:12:48;10.23;;;4.03;;
37843;SDS011;63793;57.632;18.292;2022-12-24T07:15:15;7.70;;;4.43;;
37843;SDS011;63793;57.632;18.292;2022-12-24T07:17:42;12.45;;;5.10;;
37843;SDS011;63793;57.632;18.292;2022-12-24T07:20:11;13.70;;;4.77;;
37843;SDS011;63793;57.632;18.292;2022-12-24T07:22:40;10.35;;;3.38;;
37843;SDS011;63793;57.632;18.292;2022-12-24T07:25:08;7.33;;;2.90;;
37843;SDS011;63793;57.632;18.292;2022-12-24T07:27:36;9.77;;;2.95;;
37843;SDS011;63793;57.632;18.292;2022-12-24T07:30:04;9.55;;;2.30;;
37843;SDS011;63793;57.632;18.292;2022-12-24T07:32:32;3.03;;;1.88;;
37843;SDS011;63793;57.632;18.292;2022-12-24T07:34:59;12.98;;;2.67;;
37843;SDS011;63793;57.632;18.292;2022-12-24T07:37:26;12.20;;;4.28;;
37843;SDS011;63793;57.632;18.292;2022-12-24T07:39:53;33.53;;;15.93;;
37843;SDS011;63793;57.632;18.292;2022-12-24T07:42:20;27.23;;;15.35;;
37843;SDS011;63793;57.632;18.292;2022-12-24T07:44:46;29.13;;;15.70;;
37843;SDS011;63793;57.632;18.292;2022-12-24T07:47:13;18.98;;;13.57;;
37843;SDS011;63793;57.632;18.292;2022-12-24T07:49:40;32.47;;;17.88;;
37843;SDS011;63793;57.632;18.292;2022-12-24T07:52:07;31.10;;;17.23;;
37843;SDS011;63793;57.632;18.292;2022-12-24T07:54:34;23.00;;;16.98;;
37843;SDS011;63793;57.632;18.292;2022-12-24T07:57:01;26.33;;;16.52;;
37843;SDS011;63793;57.632;18.292;2022-12-24T07:59:28;22.58;;;14.63;;
37843;SDS011;63793;57.632;18.292;2022-12-24T08:01:55;21.55;;;10.13;;
37843;SDS011;63793;57.632;18.292;2022-12-24T08:04:22;19.00;;;10.63;;
37843;SDS011;63793;57.632;18.292;2022-12-24T08:06:49;28.20;;;12.93;;
37843;SDS011;63793;57.632;18.292;2022-12-24T08:09:16;21.67;;;10.73;;
37843;SDS011;63793;57.632;18.292;2022-12-24T08:11:43;18.47;;;8.50;;
37843;SDS011;63793;57.632;18.292;2022-12-24T08:14:17;33.20;;;13.27;;
37843;SDS011;63793;57.632;18.292;2022-12-24T08:16:44;30.80;;;13.05;;
37843;SDS011;63793;57.632;18.292;2022-12-24T08:19:11;26.17;;;14.18;;
37843;SDS011;63793;57.632;18.292;2022-12-24T08:21:38;35.92;;;12.85;;
37843;SDS011;63793;57.632;18.292;2022-12-24T08:24:05;25.23;;;13.25;;
37843;SDS011;63793;57.632;18.292;2022-12-24T08:26:32;27.00;;;13.85;;
37843;SDS011;63793;57.632;18.292;2022-12-24T08:29:00;20.50;;;13.27;;
37843;SDS011;63793;57.632;18.292;2022-12-24T08:31:27;21.15;;;13.55;;
37843;SDS011;63793;57.632;18.292;2022-12-24T08:33:54;30.85;;;14.90;;
37843;SDS011;63793;57.632;18.292;2022-12-24T08:36:21;22.70;;;17.45;;
37843;SDS011;63793;57.632;18.292;2022-12-24T08:38:48;25.52;;;15.95;;
37843;SDS011;63793;57.632;18.292;2022-12-24T08:41:15;33.65;;;14.55;;
37843;SDS011;63793;57.632;18.292;2022-12-24T08:43:41;14.02;;;7.40;;
37843;SDS011;63793;57.632;18.292;2022-12-24T08:46:08;12.00;;;6.88;;
37843;SDS011;63793;57.632;18.292;2022-12-24T08:48:36;33.00;;;13.70;;
37843;SDS011;63793;57.632;18.292;2022-12-24T08:51:07;37.38;;;21.48;;
37843;SDS011;63793;57.632;18.292;2022-12-24T08:53:34;38.10;;;19.38;;
37843;SDS011;63793;57.632;18.292;2022-12-24T08:56:02;43.72;;;19.38;;
37843;SDS011;63793;57.632;18.292;2022-12-24T08:58:31;16.83;;;11.80;;
37843;SDS011;63793;57.632;18.292;2022-12-24T09:00:58;17.35;;;10.50;;
37843;SDS011;63793;57.632;18.292;2022-12-24T09:03:26;15.60;;;5.65;;
37843;SDS011;63793;57.632;18.292;2022-12-24T09:05:53;11.65;;;4.18;;
37843;SDS011;63793;57.632;18.292;2022-12-24T09:08:20;12.57;;;3.95;;
37843;SDS011;63793;57.632;18.292;2022-12-24T09:10:47;7.60;;;3.25;;
37843;SDS011;63793;57.632;18.292;2022-12-24T09:13:14;5.57;;;1.27;;
37843;SDS011;63793;57.632;18.292;2022-12-24T09:15:41;3.60;;;2.35;;
37843;SDS011;63793;57.632;18.292;2022-12-24T09:18:08;8.82;;;1.38;;
37843;SDS011;63793;57.632;18.292;2022-12-24T09:20:35;17.20;;;3.10;;
37843;SDS011;63793;57.632;18.292;2022-12-24T09:23:09;7.05;;;3.28;;
37843;SDS011;63793;57.632;18.292;2022-12-24T09:25:40;4.10;;;2.50;;
37843;SDS011;63793;57.632;18.292;2022-12-24T09:28:07;2.50;;;1.25;;
37843;SDS011;63793;57.632;18.292;2022-12-24T09:30:35;4.22;;;1.20;;
37843;SDS011;63793;57.632;18.292;2022-12-24T09:33:02;3.05;;;1.10;;
37843;SDS011;63793;57.632;18.292;2022-12-24T09:35:29;4.13;;;1.45;;
37843;SDS011;63793;57.632;18.292;2022-12-24T09:37:56;5.32;;;1.80;;
37843;SDS011;63793;57.632;18.292;2022-12-24T09:40:34;2.42;;;1.42;;
37843;SDS011;63793;57.632;18.292;2022-12-24T09:43:05;8.93;;;1.10;;
37843;SDS011;63793;57.632;18.292;2022-12-24T09:45:43;4.13;;;1.02;;
37843;SDS011;63793;57.632;18.292;2022-12-24T09:48:33;3.28;;;1.08;;
37843;SDS011;63793;57.632;18.292;2022-12-24T09:51:07;2.65;;;0.80;;
37843;SDS011;63793;57.632;18.292;2022-12-24T09:56:36;5.22;;;1.13;;
37843;SDS011;63793;57.632;18.292;2022-12-24T09:59:13;0.82;;;0.77;;
37843;SDS011;63793;57.632;18.292;2022-12-24T10:01:52;1.98;;;0.98;;
37843;SDS011;63793;57.632;18.292;2022-12-24T10:04:21;3.17;;;0.75;;
37843;SDS011;63793;57.632;18.292;2022-12-24T10:15:06;2.38;;;0.90;;
37843;SDS011;63793;57.632;18.292;2022-12-24T10:18:43;8.20;;;0.88;;
37843;SDS011;63793;57.632;18.292;2022-12-24T10:21:13;4.07;;;0.95;;
37843;SDS011;63793;57.632;18.292;2022-12-24T10:26:49;1.67;;;0.68;;
37843;SDS011;63793;57.632;18.292;2022-12-24T10:29:29;1.98;;;1.00;;
37843;SDS011;63793;57.632;18.292;2022-12-24T10:37:29;2.00;;;0.80;;
37843;SDS011;63793;57.632;18.292;2022-12-24T10:39:57;5.07;;;0.55;;
37843;SDS011;63793;57.632;18.292;2022-12-24T10:42:39;3.42;;;0.95;;
37843;SDS011;63793;57.632;18.292;2022-12-24T10:45:17;1.70;;;0.30;;
37843;SDS011;63793;57.632;18.292;2022-12-24T10:47:48;1.02;;;0.38;;
37843;SDS011;63793;57.632;18.292;2022-12-24T10:53:05;2.35;;;0.70;;
37843;SDS011;63793;57.632;18.292;2022-12-24T10:56:00;6.00;;;1.35;;
37843;SDS011;63793;57.632;18.292;2022-12-24T10:58:29;3.70;;;0.63;;
37843;SDS011;63793;57.632;18.292;2022-12-24T11:00:57;5.28;;;0.73;;
37843;SDS011;63793;57.632;18.292;2022-12-24T11:03:28;2.75;;;0.68;;
37843;SDS011;63793;57.632;18.292;2022-12-24T11:08:31;3.25;;;1.17;;
37843;SDS011;63793;57.632;18.292;2022-12-24T11:11:00;2.97;;;0.60;;
37843;SDS011;63793;57.632;18.292;2022-12-24T11:13:31;6.47;;;0.98;;
37843;SDS011;63793;57.632;18.292;2022-12-24T11:16:05;8.68;;;2.00;;
37843;SDS011;63793;57.632;18.292;2022-12-24T11:18:33;7.05;;;1.33;;
37843;SDS011;63793;57.632;18.292;2022-12-24T11:21:02;3.67;;;0.93;;
37843;SDS011;63793;57.632;18.292;2022-12-24T11:23:31;1.95;;;1.20;;
37843;SDS011;63793;57.632;18.292;2022-12-24T11:25:58;7.63;;;0.77;;
37843;SDS011;63793;57.632;18.292;2022-12-24T11:28:26;7.97;;;1.65;;
37843;SDS011;63793;57.632;18.292;2022-12-24T11:31:02;5.75;;;0.85;;
37843;SDS011;63793;57.632;18.292;2022-12-24T11:33:30;6.25;;;1.38;;
37843;SDS011;63793;57.632;18.292;2022-12-24T11:36:10;9.95;;;1.33;;
37843;SDS011;63793;57.632;18.292;2022-12-24T11:38:39;2.40;;;0.90;;
37843;SDS011;63793;57.632;18.292;2022-12-24T11:41:09;4.32;;;1.30;;
37843;SDS011;63793;57.632;18.292;2022-12-24T11:43:41;5.22;;;1.50;;
37843;SDS011;63793;57.632;18.292;2022-12-24T11:46:15;3.78;;;0.77;;
37843;SDS011;63793;57.632;18.292;2022-12-24T11:48:47;3.35;;;0.80;;
37843;SDS011;63793;57.632;18.292;2022-12-24T11:51:33;4.10;;;1.80;;
37843;SDS011;63793;57.632;18.292;2022-12-24T11:54:03;2.30;;;0.70;;
37843;SDS011;63793;57.632;18.292;2022-12-24T11:56:50;4.22;;;0.77;;
37843;SDS011;63793;57.632;18.292;2022-12-24T11:59:25;2.00;;;0.60;;
37843;SDS011;63793;57.632;18.292;2022-12-24T12:04:30;3.75;;;0.85;;
37843;SDS011;63793;57.632;18.292;2022-12-24T12:07:05;2.92;;;0.82;;
37843;SDS011;63793;57.632;18.292;2022-12-24T12:09:42;4.32;;;1.58;;
37843;SDS011;63793;57.632;18.292;2022-12-24T12:12:16;9.77;;;1.77;;
37843;SDS011;63793;57.632;18.292;2022-12-24T12:14:49;1.40;;;0.93;;
37843;SDS011;63793;57.632;18.292;2022-12-24T12:23:02;1.75;;;0.68;;
37843;SDS011;63793;57.632;18.292;2022-12-24T12:28:26;2.88;;;1.13;;
37843;SDS011;63793;57.632;18.292;2022-12-24T12:31:03;8.55;;;1.77;;
37843;SDS011;63793;57.632;18.292;2022-12-24T12:33:53;1.52;;;1.20;;
37843;SDS011;63793;57.632;18.292;2022-12-24T12:36:45;3.53;;;2.28;;
37843;SDS011;63793;57.632;18.292;2022-12-24T12:39:16;3.75;;;0.95;;
37843;SDS011;63793;57.632;18.292;2022-12-24T12:41:53;3.15;;;1.10;;
37843;SDS011;63793;57.632;18.292;2022-12-24T12:57:54;3.83;;;0.90;;
37843;SDS011;63793;57.632;18.292;2022-12-24T13:00:25;2.65;;;0.88;;
37843;SDS011;63793;57.632;18.292;2022-12-24T13:12:44;2.53;;;0.90;;
37843;SDS011;63793;57.632;18.292;2022-12-24T13:14:57;11.07;;;1.05;;
37843;SDS011;63793;57.632;18.292;2022-12-24T13:17:53;2.28;;;0.73;;
37843;SDS011;63793;57.632;18.292;2022-12-24T13:20:50;4.40;;;1.00;;
37843;SDS011;63793;57.632;18.292;2022-12-24T13:23:19;1.30;;;0.77;;
37843;SDS011;63793;57.632;18.292;2022-12-24T13:25:49;3.63;;;1.10;;
37843;SDS011;63793;57.632;18.292;2022-12-24T13:31:33;1.15;;;0.60;;
37843;SDS011;63793;57.632;18.292;2022-12-24T13:33:50;2.45;;;0.68;;
37843;SDS011;63793;57.632;18.292;2022-12-24T13:36:22;1.17;;;0.60;;
37843;SDS011;63793;57.632;18.292;2022-12-24T13:38:53;2.92;;;0.60;;
37843;SDS011;63793;57.632;18.292;2022-12-24T13:46:48;2.13;;;0.85;;
37843;SDS011;63793;57.632;18.292;2022-12-24T13:49:33;2.08;;;1.30;;
37843;SDS011;63793;57.632;18.292;2022-12-24T13:54:37;1.95;;;1.10;;
37843;SDS011;63793;57.632;18.292;2022-12-24T13:57:36;1.77;;;0.80;;
37843;SDS011;63793;57.632;18.292;2022-12-24T14:05:36;7.78;;;1.38;;
37843;SDS011;63793;57.632;18.292;2022-12-24T14:08:11;4.03;;;0.77;;
37843;SDS011;63793;57.632;18.292;2022-12-24T14:10:42;4.00;;;1.10;;
37843;SDS011;63793;57.632;18.292;2022-12-24T14:18:48;7.90;;;2.90;;
37843;SDS011;63793;57.632;18.292;2022-12-24T14:24:22;3.45;;;0.85;;
37843;SDS011;63793;57.632;18.292;2022-12-24T14:26:59;4.90;;;1.33;;
37843;SDS011;63793;57.632;18.292;2022-12-24T14:32:39;0.90;;;0.60;;
37843;SDS011;63793;57.632;18.292;2022-12-24T14:35:16;6.15;;;2.25;;
37843;SDS011;63793;57.632;18.292;2022-12-24T14:37:46;1.00;;;0.82;;
37843;SDS011;63793;57.632;18.292;2022-12-24T14:40:24;1.70;;;1.58;;
37843;SDS011;63793;57.632;18.292;2022-12-24T14:45:56;4.05;;;2.08;;
37843;SDS011;63793;57.632;18.292;2022-12-24T14:48:38;4.00;;;1.52;;
37843;SDS011;63793;57.632;18.292;2022-12-24T14:57:18;25.60;;;18.15;;
37843;SDS011;63793;57.632;18.292;2022-12-24T14:59:49;22.80;;;16.42;;
37843;SDS011;63793;57.632;18.292;2022-12-24T15:02:24;19.73;;;13.75;;
37843;SDS011;63793;57.632;18.292;2022-12-24T15:05:02;24.70;;;13.48;;
37843;SDS011;63793;57.632;18.292;2022-12-24T15:08:01;17.67;;;14.45;;
37843;SDS011;63793;57.632;18.292;2022-12-24T15:10:34;21.60;;;12.60;;
37843;SDS011;63793;57.632;18.292;2022-12-24T15:16:02;21.27;;;13.32;;
37843;SDS011;63793;57.632;18.292;2022-12-24T15:18:42;22.02;;;13.25;;
37843;SDS011;63793;57.632;18.292;2022-12-24T15:21:15;21.13;;;15.07;;
37843;SDS011;63793;57.632;18.292;2022-12-24T15:23:48;29.73;;;13.05;;
37843;SDS011;63793;57.632;18.292;2022-12-24T15:26:26;18.17;;;12.25;;
37843;SDS011;63793;57.632;18.292;2022-12-24T15:28:57;18.55;;;12.50;;
37843;SDS011;63793;57.632;18.292;2022-12-24T15:31:29;15.68;;;11.35;;
37843;SDS011;63793;57.632;18.292;2022-12-24T15:33:56;16.17;;;11.70;;
37843;SDS011;63793;57.632;18.292;2022-12-24T15:36:28;24.15;;;14.02;;
37843;SDS011;63793;57.632;18.292;2022-12-24T15:39:03;25.67;;;13.73;;
37843;SDS011;63793;57.632;18.292;2022-12-24T15:41:41;16.85;;;12.45;;
37843;SDS011;63793;57.632;18.292;2022-12-24T15:44:30;19.73;;;11.30;;
37843;SDS011;63793;57.632;18.292;2022-12-24T15:47:01;16.10;;;11.00;;
37843;SDS011;63793;57.632;18.292;2022-12-24T15:49:31;10.30;;;6.72;;
37843;SDS011;63793;57.632;18.292;2022-12-24T15:52:07;14.40;;;10.05;;
37843;SDS011;63793;57.632;18.292;2022-12-24T15:54:41;14.75;;;9.73;;
37843;SDS011;63793;57.632;18.292;2022-12-24T15:57:11;18.40;;;10.07;;
37843;SDS011;63793;57.632;18.292;2022-12-24T15:59:55;18.13;;;10.90;;
37843;SDS011;63793;57.632;18.292;2022-12-24T16:02:36;26.75;;;11.43;;
37843;SDS011;63793;57.632;18.292;2022-12-24T16:08:00;18.20;;;10.50;;
37843;SDS011;63793;57.632;18.292;2022-12-24T16:13:41;30.33;;;14.90;;
37843;SDS011;63793;57.632;18.292;2022-12-24T16:16:33;25.50;;;14.98;;
37843;SDS011;63793;57.632;18.292;2022-12-24T16:22:00;29.88;;;14.43;;
37843;SDS011;63793;57.632;18.292;2022-12-24T16:24:46;25.45;;;16.77;;
37843;SDS011;63793;57.632;18.292;2022-12-24T16:27:14;21.85;;;12.52;;
37843;SDS011;63793;57.632;18.292;2022-12-24T16:29:41;24.73;;;14.13;;
37843;SDS011;63793;57.632;18.292;2022-12-24T16:35:06;15.90;;;11.20;;
37843;SDS011;63793;57.632;18.292;2022-12-24T16:37:43;20.77;;;12.32;;
37843;SDS011;63793;57.632;18.292;2022-12-24T16:40:13;15.27;;;10.90;;
37843;SDS011;63793;57.632;18.292;2022-12-24T16:42:46;37.13;;;10.10;;
37843;SDS011;63793;57.632;18.292;2022-12-24T16:45:31;17.88;;;9.65;;
37843;SDS011;63793;57.632;18.292;2022-12-24T16:48:01;16.15;;;8.85;;
37843;SDS011;63793;57.632;18.292;2022-12-24T16:50:31;18.25;;;9.15;;
37843;SDS011;63793;57.632;18.292;2022-12-24T16:52:57;16.05;;;8.60;;
37843;SDS011;63793;57.632;18.292;2022-12-24T16:55:24;21.83;;;9.48;;
37843;SDS011;63793;57.632;18.292;2022-12-24T16:57:51;23.58;;;9.88;;
37843;SDS011;63793;57.632;18.292;2022-12-24T17:00:19;22.58;;;10.00;;
37843;SDS011;63793;57.632;18.292;2022-12-24T17:02:48;16.95;;;7.80;;
37843;SDS011;63793;57.632;18.292;2022-12-24T17:05:16;18.25;;;9.30;;
37843;SDS011;63793;57.632;18.292;2022-12-24T17:07:43;18.08;;;10.32;;